createdAt,value
2024-01-24T00:01:25.320Z,53256.88
2024-01-24T00:06:17.109Z,53268.94
2024-01-24T00:11:08.863Z,53305.06
2024-01-24T00:16:00.584Z,53266.91
2024-01-24T00:20:53.797Z,53297.03
2024-01-24T00:25:45.527Z,53301.06
2024-01-24T00:30:37.384Z,53283.00
2024-01-24T00:35:29.173Z,53301.06
2024-01-24T00:40:20.876Z,53317.13
2024-01-24T00:45:13.319Z,53295.03
2024-01-24T00:50:05.911Z,53297.03
2024-01-24T00:54:57.865Z,53285.00
2024-01-24T00:59:49.609Z,53313.09
2024-01-24T01:04:41.329Z,53301.06
2024-01-24T01:09:35.973Z,53343.22
2024-01-24T01:14:27.728Z,53309.09
2024-01-24T01:19:19.449Z,53268.94
2024-01-24T01:24:11.547Z,53289.00
2024-01-24T01:29:03.356Z,53252.88
2024-01-24T01:33:55.703Z,53262.91
2024-01-24T01:38:47.442Z,53291.03
2024-01-24T01:43:39.259Z,53307.09
2024-01-24T01:48:31.351Z,53276.97
2024-01-24T01:53:23.744Z,53258.88
2024-01-24T01:58:17.728Z,53264.91
2024-01-24T02:03:09.526Z,53260.91
2024-01-24T02:08:01.371Z,53248.84
2024-01-24T02:12:53.283Z,53232.78
2024-01-24T02:17:45.041Z,53270.94
2024-01-24T02:22:37.712Z,53293.03
2024-01-24T02:27:29.638Z,53236.81
2024-01-24T02:32:21.421Z,53289.00
2024-01-24T02:37:13.180Z,53252.88
2024-01-24T02:42:05.196Z,53266.91
2024-01-24T02:46:56.893Z,53303.06
2024-01-24T02:51:48.638Z,53268.94
2024-01-24T02:56:40.443Z,53248.84
2024-01-24T03:01:32.299Z,53289.00
2024-01-24T03:06:24.109Z,53278.97
2024-01-24T03:11:16.521Z,53266.91
2024-01-24T03:16:09.263Z,53254.88
2024-01-24T03:21:00.988Z,53280.97
2024-01-24T03:25:52.724Z,53268.94
2024-01-24T03:30:44.571Z,53283.00
2024-01-24T03:35:36.290Z,53283.00
2024-01-24T03:40:27.995Z,53254.88
2024-01-24T03:45:19.850Z,53264.91
2024-01-24T03:50:11.653Z,53285.00
2024-01-24T03:55:03.606Z,53289.00
2024-01-24T03:59:55.408Z,53260.91
2024-01-24T04:04:47.146Z,53260.91
2024-01-24T04:09:38.945Z,53244.84
2024-01-24T04:14:30.663Z,53262.91
2024-01-24T04:19:22.496Z,53297.03
2024-01-24T04:24:14.419Z,53248.84
2024-01-24T04:29:07.774Z,53254.88
2024-01-24T04:34:00.263Z,53270.94
2024-01-24T04:38:52.087Z,53258.88
2024-01-24T04:43:43.834Z,53274.94
2024-01-24T04:48:35.596Z,53268.94
2024-01-24T05:04:03.063Z,53270.94
2024-01-24T05:08:54.804Z,53234.78
2024-01-24T05:13:46.525Z,53266.91
2024-01-24T05:18:38.367Z,53268.94
2024-01-24T05:23:30.168Z,53293.03
2024-01-24T05:28:21.928Z,53224.75
2024-01-24T05:33:13.775Z,53246.84
2024-01-24T05:38:05.700Z,53228.78
2024-01-24T05:42:57.659Z,53230.78
2024-01-24T05:47:49.925Z,53242.81
2024-01-24T05:52:44.228Z,53248.84
2024-01-24T05:57:40.108Z,53276.97
2024-01-24T06:02:32.150Z,53272.94
2024-01-24T06:07:24.102Z,53232.78
2024-01-24T06:12:16.024Z,53254.88
2024-01-24T06:17:08.149Z,53246.84
2024-01-24T06:21:59.899Z,53260.91
2024-01-24T06:26:51.663Z,53240.81
2024-01-24T06:31:43.438Z,53244.84
2024-01-24T06:36:35.250Z,53224.75
2024-01-24T06:41:27.801Z,53232.78
2024-01-24T06:46:27.919Z,53262.91
2024-01-24T06:51:24.867Z,53244.84
2024-01-24T06:56:16.592Z,53228.78
2024-01-24T07:01:08.490Z,53224.75
2024-01-24T07:06:00.506Z,53220.75
2024-01-24T07:10:52.344Z,53258.88
2024-01-24T07:20:50.107Z,53254.88
2024-01-24T07:25:42.261Z,53238.81
2024-01-24T07:30:34.050Z,53218.72
2024-01-24T07:35:25.830Z,53208.69
2024-01-24T07:40:17.608Z,53216.72
2024-01-24T07:45:12.530Z,53226.75
2024-01-24T07:50:04.924Z,53216.72
2024-01-24T07:54:57.213Z,53214.72
2024-01-24T07:59:50.567Z,53206.69
2024-01-24T08:04:42.760Z,53236.81
2024-01-24T08:09:35.315Z,53246.84
2024-01-24T08:14:27.122Z,53224.75
2024-01-24T08:19:19.166Z,53244.84
2024-01-24T08:24:10.963Z,53236.81
2024-01-24T08:29:02.751Z,53176.56
2024-01-24T08:33:54.884Z,53220.75
2024-01-24T08:43:53.507Z,53204.66
2024-01-24T08:48:45.291Z,53222.75
2024-01-24T08:53:38.855Z,53222.75
2024-01-24T08:58:31.145Z,53188.59
2024-01-24T09:08:55.720Z,53186.59
2024-01-24T09:25:30.540Z,53170.53
2024-01-24T09:35:35.818Z,53182.59
2024-01-24T09:50:49.874Z,53192.63
2024-01-24T09:55:44.190Z,53186.59
2024-01-24T10:47:05.364Z,53136.41
2024-01-24T11:12:40.899Z,53172.53
2024-01-24T11:53:56.993Z,53178.56
2024-01-24T11:58:49.122Z,53168.53
2024-01-24T12:03:55.444Z,53164.50
2024-01-24T12:50:14.014Z,53160.50
2024-01-24T13:00:19.369Z,53200.66
2024-01-24T13:32:07.137Z,53176.56
2024-01-24T13:42:01.446Z,53196.63
2024-01-24T13:52:03.295Z,53158.50
2024-01-24T14:07:10.961Z,53182.59
2024-01-24T14:17:16.561Z,53172.53
2024-01-24T14:48:20.181Z,53234.78
2024-01-24T15:03:32.529Z,53198.66
2024-01-24T15:23:56.262Z,53178.56
2024-01-24T15:49:47.039Z,53220.75
2024-01-24T15:54:40.558Z,53212.72
2024-01-24T16:04:55.695Z,53208.69
2024-01-24T16:09:47.569Z,53234.78
2024-01-24T16:20:11.089Z,53244.84
2024-01-24T16:30:09.571Z,53228.78
2024-01-24T19:05:38.393Z,53246.84
2024-01-24T19:10:31.831Z,53268.94
2024-01-24T19:15:27.936Z,53264.91
2024-01-24T19:36:26.895Z,53240.81
2024-01-24T19:47:07.110Z,53248.84
2024-01-24T19:57:06.324Z,53291.03
2024-01-24T20:02:01.044Z,53264.91
2024-01-24T20:06:52.896Z,53278.97
2024-01-24T20:11:44.636Z,53256.88
2024-01-24T20:16:36.382Z,53287.00
2024-01-24T20:21:29.698Z,53276.97
2024-01-24T20:26:23.265Z,53272.94
2024-01-24T20:31:15.214Z,53291.03
2024-01-24T20:41:41.891Z,53272.94
2024-01-24T20:51:41.101Z,53248.84
2024-01-24T20:56:32.937Z,53293.03
2024-01-24T21:01:24.742Z,53297.03
2024-01-24T21:06:16.668Z,53303.06
2024-01-24T21:11:10.820Z,53305.06
2024-01-24T21:16:02.775Z,53262.91
2024-01-24T21:26:00.583Z,53244.84
2024-01-24T21:30:52.401Z,53295.03
2024-01-24T21:35:44.156Z,53303.06
2024-01-24T21:40:36.265Z,53272.94
2024-01-24T21:45:27.992Z,53276.97
2024-01-24T21:50:19.785Z,53289.00
2024-01-24T21:55:11.750Z,53289.00
2024-01-24T22:00:05.037Z,53293.03
2024-01-24T22:04:56.788Z,53301.06
2024-01-24T22:09:50.994Z,53260.91
2024-01-24T22:14:43.326Z,53268.94
2024-01-24T22:19:35.189Z,53272.94
2024-01-24T22:24:26.958Z,53264.91
2024-01-24T22:29:18.703Z,53283.00
2024-01-24T22:34:10.505Z,53321.13
2024-01-24T22:39:02.393Z,53278.97
2024-01-24T22:43:56.304Z,53293.03
2024-01-24T22:48:48.972Z,53293.03
2024-01-24T22:53:42.432Z,53305.06
2024-01-24T22:58:34.208Z,53283.00
2024-01-24T23:13:59.857Z,53268.94
2024-01-24T23:18:51.694Z,53297.03
2024-01-24T23:23:44.179Z,53301.06
2024-01-24T23:28:35.946Z,53252.88
2024-01-24T23:33:31.232Z,53264.91
2024-01-24T23:38:23.072Z,53278.97
2024-01-24T23:43:14.988Z,53291.03
2024-01-24T23:48:07.631Z,53301.06
2024-01-24T23:53:00.314Z,53309.09
2024-01-24T23:57:52.568Z,53276.97
